sensor_id;sensor_type;location;lat;lon;timestamp;P1;durP1;ratioP1;P2;durP2;ratioP2
57327;SDS011;43162;51.040;18.244;2024-01-30T00:01:23;14.70;;;6.20;;
57327;SDS011;43162;51.040;18.244;2024-01-30T00:03:48;16.10;;;6.70;;
57327;SDS011;43162;51.040;18.244;2024-01-30T00:06:18;22.20;;;7.60;;
57327;SDS011;43162;51.040;18.244;2024-01-30T00:08:46;19.50;;;6.80;;
57327;SDS011;43162;51.040;18.244;2024-01-30T00:11:14;14.60;;;6.10;;
57327;SDS011;43162;51.040;18.244;2024-01-30T00:13:40;10.00;;;5.20;;
57327;SDS011;43162;51.040;18.244;2024-01-30T00:16:06;15.60;;;6.00;;
57327;SDS011;43162;51.040;18.244;2024-01-30T00:18:32;13.70;;;5.90;;
57327;SDS011;43162;51.040;18.244;2024-01-30T00:20:57;13.90;;;6.00;;
57327;SDS011;43162;51.040;18.244;2024-01-30T00:23:22;12.50;;;5.70;;
57327;SDS011;43162;51.040;18.244;2024-01-30T00:25:48;14.90;;;6.10;;
57327;SDS011;43162;51.040;18.244;2024-01-30T00:28:14;7.50;;;4.70;;
57327;SDS011;43162;51.040;18.244;2024-01-30T00:30:39;10.70;;;5.20;;
57327;SDS011;43162;51.040;18.244;2024-01-30T00:33:05;14.50;;;6.60;;
57327;SDS011;43162;51.040;18.244;2024-01-30T00:35:31;11.80;;;5.80;;
57327;SDS011;43162;51.040;18.244;2024-01-30T00:37:56;9.80;;;5.80;;
57327;SDS011;43162;51.040;18.244;2024-01-30T00:40:22;11.80;;;5.10;;
57327;SDS011;43162;51.040;18.244;2024-01-30T00:42:48;9.60;;;5.20;;
57327;SDS011;43162;51.040;18.244;2024-01-30T00:45:13;11.00;;;4.80;;
57327;SDS011;43162;51.040;18.244;2024-01-30T00:47:40;8.90;;;5.20;;
57327;SDS011;43162;51.040;18.244;2024-01-30T00:50:05;12.30;;;5.30;;
57327;SDS011;43162;51.040;18.244;2024-01-30T00:52:31;13.10;;;6.50;;
57327;SDS011;43162;51.040;18.244;2024-01-30T00:54:58;12.80;;;5.90;;
57327;SDS011;43162;51.040;18.244;2024-01-30T00:57:24;12.70;;;6.40;;
57327;SDS011;43162;51.040;18.244;2024-01-30T00:59:50;11.90;;;5.70;;
57327;SDS011;43162;51.040;18.244;2024-01-30T01:02:15;13.00;;;5.80;;
57327;SDS011;43162;51.040;18.244;2024-01-30T01:04:43;13.00;;;5.80;;
57327;SDS011;43162;51.040;18.244;2024-01-30T01:07:09;12.30;;;5.40;;
57327;SDS011;43162;51.040;18.244;2024-01-30T01:09:36;15.60;;;5.70;;
57327;SDS011;43162;51.040;18.244;2024-01-30T01:12:01;14.00;;;6.40;;
57327;SDS011;43162;51.040;18.244;2024-01-30T01:14:27;15.80;;;6.50;;
57327;SDS011;43162;51.040;18.244;2024-01-30T01:16:53;14.50;;;6.20;;
57327;SDS011;43162;51.040;18.244;2024-01-30T01:19:18;10.70;;;6.20;;
57327;SDS011;43162;51.040;18.244;2024-01-30T01:21:44;15.00;;;7.10;;
57327;SDS011;43162;51.040;18.244;2024-01-30T01:24:09;13.20;;;6.90;;
57327;SDS011;43162;51.040;18.244;2024-01-30T01:26:35;12.10;;;6.40;;
57327;SDS011;43162;51.040;18.244;2024-01-30T01:29:00;14.50;;;6.30;;
57327;SDS011;43162;51.040;18.244;2024-01-30T01:31:26;15.90;;;7.40;;
57327;SDS011;43162;51.040;18.244;2024-01-30T01:33:54;17.20;;;6.60;;
57327;SDS011;43162;51.040;18.244;2024-01-30T01:36:20;13.10;;;6.60;;
57327;SDS011;43162;51.040;18.244;2024-01-30T01:38:45;12.20;;;5.40;;
57327;SDS011;43162;51.040;18.244;2024-01-30T01:41:11;8.80;;;5.00;;
57327;SDS011;43162;51.040;18.244;2024-01-30T01:43:36;8.60;;;5.10;;
57327;SDS011;43162;51.040;18.244;2024-01-30T01:46:05;13.00;;;5.40;;
57327;SDS011;43162;51.040;18.244;2024-01-30T01:48:32;12.30;;;5.00;;
57327;SDS011;43162;51.040;18.244;2024-01-30T01:50:57;14.00;;;6.30;;
57327;SDS011;43162;51.040;18.244;2024-01-30T01:53:23;12.40;;;5.00;;
57327;SDS011;43162;51.040;18.244;2024-01-30T01:55:50;8.80;;;4.80;;
57327;SDS011;43162;51.040;18.244;2024-01-30T01:58:18;13.60;;;6.10;;
57327;SDS011;43162;51.040;18.244;2024-01-30T02:00:45;16.80;;;6.90;;
57327;SDS011;43162;51.040;18.244;2024-01-30T02:03:11;10.40;;;6.30;;
57327;SDS011;43162;51.040;18.244;2024-01-30T02:05:39;9.20;;;5.00;;
57327;SDS011;43162;51.040;18.244;2024-01-30T02:08:05;13.50;;;5.30;;
57327;SDS011;43162;51.040;18.244;2024-01-30T02:10:31;9.20;;;5.50;;
57327;SDS011;43162;51.040;18.244;2024-01-30T02:12:56;10.80;;;5.30;;
57327;SDS011;43162;51.040;18.244;2024-01-30T02:15:22;10.00;;;5.50;;
57327;SDS011;43162;51.040;18.244;2024-01-30T02:17:47;13.00;;;7.10;;
57327;SDS011;43162;51.040;18.244;2024-01-30T02:20:13;10.40;;;6.20;;
57327;SDS011;43162;51.040;18.244;2024-01-30T02:22:38;11.00;;;5.20;;
57327;SDS011;43162;51.040;18.244;2024-01-30T02:25:05;9.20;;;6.00;;
57327;SDS011;43162;51.040;18.244;2024-01-30T02:27:31;7.50;;;4.70;;
57327;SDS011;43162;51.040;18.244;2024-01-30T02:29:57;12.30;;;5.10;;
57327;SDS011;43162;51.040;18.244;2024-01-30T02:32:22;12.40;;;5.90;;
57327;SDS011;43162;51.040;18.244;2024-01-30T02:34:48;14.00;;;6.20;;
57327;SDS011;43162;51.040;18.244;2024-01-30T02:37:13;11.90;;;6.40;;
57327;SDS011;43162;51.040;18.244;2024-01-30T02:39:39;12.00;;;6.50;;
57327;SDS011;43162;51.040;18.244;2024-01-30T02:42:04;12.90;;;6.40;;
57327;SDS011;43162;51.040;18.244;2024-01-30T02:44:30;13.40;;;6.70;;
57327;SDS011;43162;51.040;18.244;2024-01-30T02:46:56;16.10;;;7.10;;
57327;SDS011;43162;51.040;18.244;2024-01-30T02:49:22;25.40;;;7.50;;
57327;SDS011;43162;51.040;18.244;2024-01-30T02:51:47;63.70;;;16.30;;
57327;SDS011;43162;51.040;18.244;2024-01-30T02:54:13;82.50;;;20.00;;
57327;SDS011;43162;51.040;18.244;2024-01-30T02:56:39;116.60;;;24.90;;
57327;SDS011;43162;51.040;18.244;2024-01-30T02:59:04;117.30;;;25.80;;
57327;SDS011;43162;51.040;18.244;2024-01-30T03:01:30;123.90;;;29.70;;
57327;SDS011;43162;51.040;18.244;2024-01-30T03:03:57;180.10;;;32.80;;
57327;SDS011;43162;51.040;18.244;2024-01-30T03:06:22;138.80;;;34.10;;
57327;SDS011;43162;51.040;18.244;2024-01-30T03:08:48;134.60;;;31.70;;
57327;SDS011;43162;51.040;18.244;2024-01-30T03:11:13;140.30;;;29.70;;
57327;SDS011;43162;51.040;18.244;2024-01-30T03:13:39;142.50;;;31.90;;
57327;SDS011;43162;51.040;18.244;2024-01-30T03:16:05;123.80;;;26.60;;
57327;SDS011;43162;51.040;18.244;2024-01-30T03:18:31;79.60;;;19.00;;
57327;SDS011;43162;51.040;18.244;2024-01-30T03:20:56;69.10;;;18.70;;
57327;SDS011;43162;51.040;18.244;2024-01-30T03:23:22;57.70;;;16.20;;
57327;SDS011;43162;51.040;18.244;2024-01-30T03:25:47;70.90;;;19.30;;
57327;SDS011;43162;51.040;18.244;2024-01-30T03:28:13;120.90;;;29.50;;
57327;SDS011;43162;51.040;18.244;2024-01-30T03:30:38;114.50;;;28.00;;
57327;SDS011;43162;51.040;18.244;2024-01-30T03:33:04;104.20;;;26.70;;
57327;SDS011;43162;51.040;18.244;2024-01-30T03:35:30;112.00;;;30.80;;
57327;SDS011;43162;51.040;18.244;2024-01-30T03:37:55;80.20;;;25.80;;
57327;SDS011;43162;51.040;18.244;2024-01-30T03:40:20;61.00;;;21.20;;
57327;SDS011;43162;51.040;18.244;2024-01-30T03:42:46;43.50;;;16.50;;
57327;SDS011;43162;51.040;18.244;2024-01-30T03:45:11;42.10;;;17.40;;
57327;SDS011;43162;51.040;18.244;2024-01-30T03:47:37;52.30;;;20.40;;
57327;SDS011;43162;51.040;18.244;2024-01-30T03:50:03;42.20;;;16.60;;
57327;SDS011;43162;51.040;18.244;2024-01-30T03:52:30;29.30;;;12.30;;
57327;SDS011;43162;51.040;18.244;2024-01-30T03:54:55;23.60;;;9.80;;
57327;SDS011;43162;51.040;18.244;2024-01-30T03:57:21;16.80;;;8.90;;
57327;SDS011;43162;51.040;18.244;2024-01-30T03:59:47;16.50;;;8.40;;
57327;SDS011;43162;51.040;18.244;2024-01-30T04:02:12;20.20;;;7.90;;
57327;SDS011;43162;51.040;18.244;2024-01-30T04:04:38;19.20;;;8.20;;
57327;SDS011;43162;51.040;18.244;2024-01-30T04:07:04;19.30;;;7.90;;
57327;SDS011;43162;51.040;18.244;2024-01-30T04:09:29;15.70;;;7.90;;
57327;SDS011;43162;51.040;18.244;2024-01-30T04:11:55;15.10;;;8.00;;
57327;SDS011;43162;51.040;18.244;2024-01-30T04:14:20;17.20;;;8.30;;
57327;SDS011;43162;51.040;18.244;2024-01-30T04:16:46;16.00;;;7.70;;
57327;SDS011;43162;51.040;18.244;2024-01-30T04:19:11;18.70;;;8.50;;
57327;SDS011;43162;51.040;18.244;2024-01-30T04:21:37;14.80;;;8.00;;
57327;SDS011;43162;51.040;18.244;2024-01-30T04:24:03;16.90;;;9.00;;
57327;SDS011;43162;51.040;18.244;2024-01-30T04:26:29;17.60;;;10.30;;
57327;SDS011;43162;51.040;18.244;2024-01-30T04:28:54;18.80;;;9.30;;
57327;SDS011;43162;51.040;18.244;2024-01-30T04:31:19;30.00;;;13.00;;
57327;SDS011;43162;51.040;18.244;2024-01-30T04:33:45;39.00;;;15.10;;
57327;SDS011;43162;51.040;18.244;2024-01-30T04:36:11;31.80;;;13.60;;
57327;SDS011;43162;51.040;18.244;2024-01-30T04:38:37;22.70;;;11.40;;
57327;SDS011;43162;51.040;18.244;2024-01-30T04:41:03;25.60;;;11.00;;
57327;SDS011;43162;51.040;18.244;2024-01-30T04:43:29;20.20;;;10.60;;
57327;SDS011;43162;51.040;18.244;2024-01-30T04:45:55;17.10;;;10.40;;
57327;SDS011;43162;51.040;18.244;2024-01-30T04:48:20;21.30;;;9.70;;
57327;SDS011;43162;51.040;18.244;2024-01-30T04:50:46;19.40;;;9.60;;
57327;SDS011;43162;51.040;18.244;2024-01-30T04:53:11;13.70;;;7.60;;
57327;SDS011;43162;51.040;18.244;2024-01-30T04:55:37;15.10;;;8.30;;
57327;SDS011;43162;51.040;18.244;2024-01-30T04:58:02;12.40;;;7.10;;
57327;SDS011;43162;51.040;18.244;2024-01-30T05:00:28;16.20;;;8.00;;
57327;SDS011;43162;51.040;18.244;2024-01-30T05:02:54;16.20;;;8.70;;
57327;SDS011;43162;51.040;18.244;2024-01-30T05:05:20;19.20;;;8.00;;
57327;SDS011;43162;51.040;18.244;2024-01-30T05:07:47;16.10;;;8.10;;
57327;SDS011;43162;51.040;18.244;2024-01-30T05:10:12;18.90;;;8.90;;
57327;SDS011;43162;51.040;18.244;2024-01-30T05:12:38;17.20;;;7.40;;
57327;SDS011;43162;51.040;18.244;2024-01-30T05:15:04;18.80;;;7.60;;
57327;SDS011;43162;51.040;18.244;2024-01-30T05:17:30;17.00;;;8.00;;
57327;SDS011;43162;51.040;18.244;2024-01-30T05:19:56;17.20;;;8.50;;
57327;SDS011;43162;51.040;18.244;2024-01-30T05:22:21;19.10;;;8.80;;
57327;SDS011;43162;51.040;18.244;2024-01-30T05:24:47;16.80;;;8.40;;
57327;SDS011;43162;51.040;18.244;2024-01-30T05:27:12;21.30;;;8.80;;
57327;SDS011;43162;51.040;18.244;2024-01-30T05:29:39;16.90;;;8.90;;
57327;SDS011;43162;51.040;18.244;2024-01-30T05:32:06;17.00;;;8.90;;
57327;SDS011;43162;51.040;18.244;2024-01-30T05:34:31;18.60;;;8.70;;
57327;SDS011;43162;51.040;18.244;2024-01-30T05:36:57;17.20;;;7.10;;
57327;SDS011;43162;51.040;18.244;2024-01-30T05:39:22;19.30;;;8.60;;
57327;SDS011;43162;51.040;18.244;2024-01-30T05:41:48;16.20;;;8.00;;
57327;SDS011;43162;51.040;18.244;2024-01-30T05:44:13;20.90;;;8.30;;
57327;SDS011;43162;51.040;18.244;2024-01-30T05:46:39;18.40;;;10.30;;
57327;SDS011;43162;51.040;18.244;2024-01-30T05:49:05;52.80;;;18.60;;
57327;SDS011;43162;51.040;18.244;2024-01-30T05:51:31;86.90;;;27.90;;
57327;SDS011;43162;51.040;18.244;2024-01-30T05:53:56;91.40;;;26.90;;
57327;SDS011;43162;51.040;18.244;2024-01-30T05:56:22;88.30;;;29.40;;
57327;SDS011;43162;51.040;18.244;2024-01-30T05:58:47;129.50;;;39.50;;
57327;SDS011;43162;51.040;18.244;2024-01-30T06:01:15;106.30;;;33.50;;
57327;SDS011;43162;51.040;18.244;2024-01-30T06:03:41;63.00;;;20.60;;
57327;SDS011;43162;51.040;18.244;2024-01-30T06:06:08;60.20;;;20.50;;
57327;SDS011;43162;51.040;18.244;2024-01-30T06:08:34;55.80;;;18.80;;
57327;SDS011;43162;51.040;18.244;2024-01-30T06:11:00;33.80;;;14.40;;
57327;SDS011;43162;51.040;18.244;2024-01-30T06:13:26;29.10;;;12.90;;
57327;SDS011;43162;51.040;18.244;2024-01-30T06:15:52;38.70;;;14.90;;
57327;SDS011;43162;51.040;18.244;2024-01-30T06:18:17;32.70;;;13.90;;
57327;SDS011;43162;51.040;18.244;2024-01-30T06:20:43;23.80;;;11.10;;
57327;SDS011;43162;51.040;18.244;2024-01-30T06:23:09;16.80;;;8.10;;
57327;SDS011;43162;51.040;18.244;2024-01-30T06:25:35;15.60;;;7.90;;
57327;SDS011;43162;51.040;18.244;2024-01-30T06:28:00;15.80;;;8.30;;
57327;SDS011;43162;51.040;18.244;2024-01-30T06:30:26;19.60;;;8.70;;
57327;SDS011;43162;51.040;18.244;2024-01-30T06:32:51;20.30;;;8.70;;
57327;SDS011;43162;51.040;18.244;2024-01-30T06:35:17;22.60;;;11.50;;
57327;SDS011;43162;51.040;18.244;2024-01-30T06:37:43;33.20;;;13.60;;
57327;SDS011;43162;51.040;18.244;2024-01-30T06:40:08;35.50;;;15.20;;
57327;SDS011;43162;51.040;18.244;2024-01-30T06:42:35;34.90;;;15.70;;
57327;SDS011;43162;51.040;18.244;2024-01-30T06:45:00;36.80;;;16.20;;
57327;SDS011;43162;51.040;18.244;2024-01-30T06:47:25;36.40;;;16.30;;
57327;SDS011;43162;51.040;18.244;2024-01-30T06:49:51;50.30;;;17.00;;
57327;SDS011;43162;51.040;18.244;2024-01-30T06:52:16;60.90;;;20.50;;
57327;SDS011;43162;51.040;18.244;2024-01-30T06:54:42;45.70;;;19.80;;
57327;SDS011;43162;51.040;18.244;2024-01-30T06:57:07;39.90;;;17.50;;
57327;SDS011;43162;51.040;18.244;2024-01-30T06:59:37;42.20;;;17.00;;
57327;SDS011;43162;51.040;18.244;2024-01-30T07:02:08;39.40;;;16.10;;
57327;SDS011;43162;51.040;18.244;2024-01-30T07:04:37;40.70;;;15.70;;
57327;SDS011;43162;51.040;18.244;2024-01-30T07:07:03;36.00;;;14.70;;
57327;SDS011;43162;51.040;18.244;2024-01-30T07:09:30;37.30;;;13.80;;
57327;SDS011;43162;51.040;18.244;2024-01-30T07:11:56;41.00;;;14.70;;
57327;SDS011;43162;51.040;18.244;2024-01-30T07:14:23;50.30;;;16.40;;
57327;SDS011;43162;51.040;18.244;2024-01-30T07:16:49;36.80;;;14.40;;
57327;SDS011;43162;51.040;18.244;2024-01-30T07:19:15;32.10;;;14.30;;
57327;SDS011;43162;51.040;18.244;2024-01-30T07:21:41;24.50;;;12.40;;
57327;SDS011;43162;51.040;18.244;2024-01-30T07:24:07;27.00;;;13.00;;
57327;SDS011;43162;51.040;18.244;2024-01-30T07:26:32;29.50;;;13.10;;
57327;SDS011;43162;51.040;18.244;2024-01-30T07:28:58;39.00;;;15.30;;
57327;SDS011;43162;51.040;18.244;2024-01-30T07:31:23;35.80;;;15.40;;
57327;SDS011;43162;51.040;18.244;2024-01-30T07:33:49;46.90;;;17.80;;
57327;SDS011;43162;51.040;18.244;2024-01-30T07:36:14;51.50;;;17.50;;
57327;SDS011;43162;51.040;18.244;2024-01-30T07:38:40;48.80;;;15.80;;
57327;SDS011;43162;51.040;18.244;2024-01-30T07:41:05;37.80;;;13.90;;
57327;SDS011;43162;51.040;18.244;2024-01-30T07:43:31;57.00;;;18.10;;
57327;SDS011;43162;51.040;18.244;2024-01-30T07:45:57;50.20;;;16.80;;
57327;SDS011;43162;51.040;18.244;2024-01-30T07:48:22;43.00;;;16.30;;
57327;SDS011;43162;51.040;18.244;2024-01-30T07:50:48;35.20;;;15.10;;
57327;SDS011;43162;51.040;18.244;2024-01-30T07:53:14;34.10;;;14.90;;
57327;SDS011;43162;51.040;18.244;2024-01-30T07:55:39;34.60;;;13.80;;
57327;SDS011;43162;51.040;18.244;2024-01-30T07:58:05;27.50;;;12.70;;
57327;SDS011;43162;51.040;18.244;2024-01-30T08:00:31;31.00;;;13.70;;
57327;SDS011;43162;51.040;18.244;2024-01-30T08:02:56;25.60;;;12.20;;
57327;SDS011;43162;51.040;18.244;2024-01-30T08:05:22;24.60;;;13.30;;
57327;SDS011;43162;51.040;18.244;2024-01-30T08:07:48;28.90;;;12.20;;
57327;SDS011;43162;51.040;18.244;2024-01-30T08:10:14;35.30;;;15.10;;
57327;SDS011;43162;51.040;18.244;2024-01-30T08:12:41;33.40;;;15.00;;
57327;SDS011;43162;51.040;18.244;2024-01-30T08:15:07;36.30;;;14.00;;
57327;SDS011;43162;51.040;18.244;2024-01-30T08:17:34;34.40;;;14.30;;
57327;SDS011;43162;51.040;18.244;2024-01-30T08:19:59;35.00;;;13.70;;
57327;SDS011;43162;51.040;18.244;2024-01-30T08:22:25;37.20;;;13.70;;
57327;SDS011;43162;51.040;18.244;2024-01-30T08:24:51;36.10;;;13.40;;
57327;SDS011;43162;51.040;18.244;2024-01-30T08:27:16;27.40;;;11.70;;
57327;SDS011;43162;51.040;18.244;2024-01-30T08:29:42;27.40;;;11.10;;
57327;SDS011;43162;51.040;18.244;2024-01-30T08:32:07;32.20;;;11.70;;
57327;SDS011;43162;51.040;18.244;2024-01-30T08:34:33;27.60;;;11.10;;
57327;SDS011;43162;51.040;18.244;2024-01-30T08:36:59;31.40;;;11.80;;
57327;SDS011;43162;51.040;18.244;2024-01-30T08:39:24;31.30;;;11.30;;
57327;SDS011;43162;51.040;18.244;2024-01-30T08:41:50;23.80;;;10.00;;
57327;SDS011;43162;51.040;18.244;2024-01-30T08:44:15;28.60;;;11.30;;
57327;SDS011;43162;51.040;18.244;2024-01-30T08:46:43;24.30;;;9.70;;
57327;SDS011;43162;51.040;18.244;2024-01-30T08:49:09;31.50;;;10.60;;
57327;SDS011;43162;51.040;18.244;2024-01-30T08:51:35;17.70;;;7.60;;
57327;SDS011;43162;51.040;18.244;2024-01-30T08:54:01;20.00;;;9.20;;
57327;SDS011;43162;51.040;18.244;2024-01-30T08:56:28;21.30;;;9.20;;
57327;SDS011;43162;51.040;18.244;2024-01-30T08:58:53;24.50;;;10.50;;
57327;SDS011;43162;51.040;18.244;2024-01-30T09:01:19;27.70;;;12.50;;
57327;SDS011;43162;51.040;18.244;2024-01-30T09:03:45;26.50;;;12.50;;
57327;SDS011;43162;51.040;18.244;2024-01-30T09:06:12;31.30;;;12.80;;
57327;SDS011;43162;51.040;18.244;2024-01-30T09:08:38;33.50;;;13.90;;
57327;SDS011;43162;51.040;18.244;2024-01-30T09:11:10;33.60;;;13.40;;
57327;SDS011;43162;51.040;18.244;2024-01-30T09:13:37;26.80;;;11.00;;
57327;SDS011;43162;51.040;18.244;2024-01-30T09:16:03;25.50;;;10.80;;
57327;SDS011;43162;51.040;18.244;2024-01-30T09:18:29;22.80;;;9.30;;
57327;SDS011;43162;51.040;18.244;2024-01-30T09:20:54;18.90;;;8.90;;
57327;SDS011;43162;51.040;18.244;2024-01-30T09:23:20;21.60;;;7.90;;
57327;SDS011;43162;51.040;18.244;2024-01-30T09:25:47;23.30;;;8.60;;
57327;SDS011;43162;51.040;18.244;2024-01-30T09:28:12;19.80;;;8.10;;
57327;SDS011;43162;51.040;18.244;2024-01-30T09:30:38;20.20;;;9.30;;
57327;SDS011;43162;51.040;18.244;2024-01-30T09:33:04;23.60;;;9.30;;
57327;SDS011;43162;51.040;18.244;2024-01-30T09:35:30;19.40;;;9.60;;
57327;SDS011;43162;51.040;18.244;2024-01-30T09:37:56;24.20;;;9.40;;
57327;SDS011;43162;51.040;18.244;2024-01-30T09:40:22;22.30;;;9.00;;
57327;SDS011;43162;51.040;18.244;2024-01-30T09:42:49;19.10;;;9.20;;
57327;SDS011;43162;51.040;18.244;2024-01-30T09:45:17;26.20;;;11.80;;
57327;SDS011;43162;51.040;18.244;2024-01-30T09:47:43;22.40;;;9.10;;
57327;SDS011;43162;51.040;18.244;2024-01-30T09:50:10;23.50;;;11.10;;
57327;SDS011;43162;51.040;18.244;2024-01-30T09:52:37;22.80;;;10.20;;
57327;SDS011;43162;51.040;18.244;2024-01-30T09:55:04;22.60;;;10.10;;
57327;SDS011;43162;51.040;18.244;2024-01-30T09:57:30;19.80;;;9.40;;
57327;SDS011;43162;51.040;18.244;2024-01-30T09:59:55;22.60;;;9.20;;
57327;SDS011;43162;51.040;18.244;2024-01-30T10:02:21;19.60;;;8.30;;
57327;SDS011;43162;51.040;18.244;2024-01-30T10:04:47;18.80;;;8.70;;
57327;SDS011;43162;51.040;18.244;2024-01-30T10:07:14;24.80;;;9.10;;
57327;SDS011;43162;51.040;18.244;2024-01-30T10:09:40;19.30;;;8.80;;
57327;SDS011;43162;51.040;18.244;2024-01-30T10:12:06;26.70;;;10.00;;
57327;SDS011;43162;51.040;18.244;2024-01-30T10:14:33;19.00;;;8.00;;
57327;SDS011;43162;51.040;18.244;2024-01-30T10:16:58;17.40;;;7.30;;
57327;SDS011;43162;51.040;18.244;2024-01-30T10:19:24;23.00;;;8.60;;
57327;SDS011;43162;51.040;18.244;2024-01-30T10:21:50;17.50;;;8.40;;
57327;SDS011;43162;51.040;18.244;2024-01-30T10:24:16;22.80;;;8.80;;
57327;SDS011;43162;51.040;18.244;2024-01-30T10:26:45;18.60;;;8.00;;
57327;SDS011;43162;51.040;18.244;2024-01-30T10:29:11;16.80;;;8.60;;
57327;SDS011;43162;51.040;18.244;2024-01-30T10:31:36;15.80;;;7.40;;
57327;SDS011;43162;51.040;18.244;2024-01-30T10:34:02;14.90;;;6.90;;
57327;SDS011;43162;51.040;18.244;2024-01-30T10:36:30;16.80;;;8.10;;
57327;SDS011;43162;51.040;18.244;2024-01-30T10:38:59;22.60;;;9.20;;
57327;SDS011;43162;51.040;18.244;2024-01-30T10:41:28;17.40;;;7.90;;
57327;SDS011;43162;51.040;18.244;2024-01-30T10:44:08;14.30;;;7.00;;
57327;SDS011;43162;51.040;18.244;2024-01-30T10:46:34;17.70;;;8.10;;
57327;SDS011;43162;51.040;18.244;2024-01-30T10:49:00;29.40;;;9.10;;
57327;SDS011;43162;51.040;18.244;2024-01-30T10:51:26;15.10;;;7.30;;
57327;SDS011;43162;51.040;18.244;2024-01-30T10:53:52;15.80;;;7.60;;
57327;SDS011;43162;51.040;18.244;2024-01-30T10:56:22;25.30;;;10.50;;
57327;SDS011;43162;51.040;18.244;2024-01-30T10:58:52;22.90;;;9.80;;
57327;SDS011;43162;51.040;18.244;2024-01-30T11:01:19;16.70;;;7.60;;
57327;SDS011;43162;51.040;18.244;2024-01-30T11:03:54;18.30;;;8.00;;
57327;SDS011;43162;51.040;18.244;2024-01-30T11:06:22;14.80;;;7.20;;
57327;SDS011;43162;51.040;18.244;2024-01-30T11:09:10;17.10;;;7.70;;
57327;SDS011;43162;51.040;18.244;2024-01-30T11:14:37;14.70;;;6.70;;
57327;SDS011;43162;51.040;18.244;2024-01-30T11:17:05;14.10;;;6.50;;
57327;SDS011;43162;51.040;18.244;2024-01-30T11:19:31;15.10;;;7.30;;
57327;SDS011;43162;51.040;18.244;2024-01-30T11:21:58;12.70;;;7.00;;
57327;SDS011;43162;51.040;18.244;2024-01-30T11:24:25;14.10;;;6.20;;
57327;SDS011;43162;51.040;18.244;2024-01-30T11:26:57;16.10;;;6.90;;
57327;SDS011;43162;51.040;18.244;2024-01-30T11:29:24;18.50;;;7.10;;
57327;SDS011;43162;51.040;18.244;2024-01-30T11:31:53;12.10;;;6.90;;
57327;SDS011;43162;51.040;18.244;2024-01-30T11:34:20;15.10;;;8.90;;
57327;SDS011;43162;51.040;18.244;2024-01-30T11:36:51;14.70;;;7.30;;
57327;SDS011;43162;51.040;18.244;2024-01-30T11:39:23;19.20;;;7.60;;
57327;SDS011;43162;51.040;18.244;2024-01-30T11:41:50;14.70;;;5.80;;
57327;SDS011;43162;51.040;18.244;2024-01-30T11:44:18;17.00;;;6.10;;
57327;SDS011;43162;51.040;18.244;2024-01-30T11:46:46;13.80;;;7.00;;
57327;SDS011;43162;51.040;18.244;2024-01-30T11:49:14;15.50;;;7.30;;
57327;SDS011;43162;51.040;18.244;2024-01-30T11:51:39;14.30;;;7.00;;
57327;SDS011;43162;51.040;18.244;2024-01-30T11:54:05;11.80;;;6.30;;
57327;SDS011;43162;51.040;18.244;2024-01-30T11:56:31;13.60;;;7.20;;
57327;SDS011;43162;51.040;18.244;2024-01-30T11:58:56;14.20;;;6.60;;
57327;SDS011;43162;51.040;18.244;2024-01-30T12:01:22;10.10;;;5.70;;
57327;SDS011;43162;51.040;18.244;2024-01-30T12:03:50;13.40;;;6.00;;
57327;SDS011;43162;51.040;18.244;2024-01-30T12:06:16;14.00;;;5.80;;
57327;SDS011;43162;51.040;18.244;2024-01-30T12:08:42;13.80;;;6.50;;
57327;SDS011;43162;51.040;18.244;2024-01-30T12:11:07;13.90;;;5.60;;
57327;SDS011;43162;51.040;18.244;2024-01-30T12:13:33;11.00;;;5.40;;
57327;SDS011;43162;51.040;18.244;2024-01-30T12:16:00;10.50;;;5.80;;
57327;SDS011;43162;51.040;18.244;2024-01-30T12:18:26;11.50;;;5.70;;
57327;SDS011;43162;51.040;18.244;2024-01-30T12:21:01;12.90;;;6.30;;
57327;SDS011;43162;51.040;18.244;2024-01-30T12:23:27;10.00;;;5.60;;
57327;SDS011;43162;51.040;18.244;2024-01-30T12:25:53;14.20;;;6.70;;
57327;SDS011;43162;51.040;18.244;2024-01-30T12:28:20;17.30;;;8.20;;
57327;SDS011;43162;51.040;18.244;2024-01-30T12:30:46;10.70;;;5.40;;
57327;SDS011;43162;51.040;18.244;2024-01-30T12:33:17;14.50;;;6.10;;
57327;SDS011;43162;51.040;18.244;2024-01-30T12:35:46;11.20;;;4.80;;
57327;SDS011;43162;51.040;18.244;2024-01-30T12:38:14;13.70;;;6.00;;
57327;SDS011;43162;51.040;18.244;2024-01-30T12:40:40;12.00;;;5.50;;
57327;SDS011;43162;51.040;18.244;2024-01-30T12:43:05;11.20;;;5.10;;
57327;SDS011;43162;51.040;18.244;2024-01-30T12:45:31;12.00;;;5.20;;
57327;SDS011;43162;51.040;18.244;2024-01-30T12:47:56;12.20;;;5.60;;
57327;SDS011;43162;51.040;18.244;2024-01-30T12:50:23;12.30;;;5.60;;
57327;SDS011;43162;51.040;18.244;2024-01-30T12:52:49;10.00;;;4.60;;
57327;SDS011;43162;51.040;18.244;2024-01-30T12:55:15;14.00;;;5.50;;
57327;SDS011;43162;51.040;18.244;2024-01-30T12:57:40;11.20;;;6.20;;
57327;SDS011;43162;51.040;18.244;2024-01-30T13:00:07;9.30;;;5.00;;
57327;SDS011;43162;51.040;18.244;2024-01-30T13:02:33;13.30;;;6.00;;
57327;SDS011;43162;51.040;18.244;2024-01-30T13:05:05;15.20;;;6.40;;
57327;SDS011;43162;51.040;18.244;2024-01-30T13:07:30;13.30;;;4.90;;
57327;SDS011;43162;51.040;18.244;2024-01-30T13:09:56;12.40;;;4.20;;
57327;SDS011;43162;51.040;18.244;2024-01-30T13:12:31;9.80;;;5.20;;
57327;SDS011;43162;51.040;18.244;2024-01-30T13:15:01;10.70;;;5.70;;
57327;SDS011;43162;51.040;18.244;2024-01-30T13:17:27;12.90;;;5.90;;
57327;SDS011;43162;51.040;18.244;2024-01-30T13:19:56;10.70;;;5.00;;
57327;SDS011;43162;51.040;18.244;2024-01-30T13:22:21;10.50;;;5.60;;
57327;SDS011;43162;51.040;18.244;2024-01-30T13:24:47;15.40;;;5.70;;
57327;SDS011;43162;51.040;18.244;2024-01-30T13:27:13;15.20;;;5.20;;
57327;SDS011;43162;51.040;18.244;2024-01-30T13:29:38;9.40;;;5.60;;
57327;SDS011;43162;51.040;18.244;2024-01-30T13:32:04;15.60;;;6.70;;
57327;SDS011;43162;51.040;18.244;2024-01-30T13:34:30;14.30;;;6.00;;
57327;SDS011;43162;51.040;18.244;2024-01-30T13:36:56;14.70;;;8.10;;
57327;SDS011;43162;51.040;18.244;2024-01-30T13:39:21;14.10;;;7.30;;
57327;SDS011;43162;51.040;18.244;2024-01-30T13:41:48;12.10;;;7.40;;
57327;SDS011;43162;51.040;18.244;2024-01-30T13:44:15;17.60;;;7.40;;
57327;SDS011;43162;51.040;18.244;2024-01-30T13:46:42;11.40;;;5.70;;
57327;SDS011;43162;51.040;18.244;2024-01-30T13:49:08;16.00;;;6.50;;
57327;SDS011;43162;51.040;18.244;2024-01-30T13:51:33;18.50;;;7.30;;
57327;SDS011;43162;51.040;18.244;2024-01-30T13:53:59;13.50;;;6.80;;
57327;SDS011;43162;51.040;18.244;2024-01-30T13:56:24;13.90;;;6.70;;
57327;SDS011;43162;51.040;18.244;2024-01-30T13:58:52;14.60;;;6.50;;
57327;SDS011;43162;51.040;18.244;2024-01-30T14:01:17;14.20;;;7.30;;
57327;SDS011;43162;51.040;18.244;2024-01-30T14:03:43;9.40;;;5.80;;
57327;SDS011;43162;51.040;18.244;2024-01-30T14:06:09;11.40;;;5.70;;
57327;SDS011;43162;51.040;18.244;2024-01-30T14:08:35;9.60;;;4.80;;
57327;SDS011;43162;51.040;18.244;2024-01-30T14:11:00;14.10;;;6.60;;
57327;SDS011;43162;51.040;18.244;2024-01-30T14:13:26;17.40;;;7.60;;
57327;SDS011;43162;51.040;18.244;2024-01-30T14:15:51;19.60;;;7.60;;